sensor_id;sensor_type;location;lat;lon;timestamp;pressure;altitude;pressure_sealevel;temperature;humidity
18987;BME280;9627;59.236;18.142;2022-07-23T00:01:20;100679.88;;;17.66;100.00
18987;BME280;9627;59.236;18.142;2022-07-23T00:03:47;100682.31;;;17.68;100.00
18987;BME280;9627;59.236;18.142;2022-07-23T00:06:13;100688.19;;;17.76;100.00
18987;BME280;9627;59.236;18.142;2022-07-23T00:08:42;100676.34;;;17.66;100.00
18987;BME280;9627;59.236;18.142;2022-07-23T00:11:09;100680.47;;;17.68;100.00
18987;BME280;9627;59.236;18.142;2022-07-23T00:13:35;100681.16;;;17.75;100.00
18987;BME280;9627;59.236;18.142;2022-07-23T00:16:02;100678.94;;;17.72;100.00
18987;BME280;9627;59.236;18.142;2022-07-23T00:18:29;100677.53;;;17.70;100.00
18987;BME280;9627;59.236;18.142;2022-07-23T00:20:56;100669.94;;;17.67;100.00
18987;BME280;9627;59.236;18.142;2022-07-23T00:23:23;100672.72;;;17.60;100.00
18987;BME280;9627;59.236;18.142;2022-07-23T00:25:52;100677.06;;;17.61;100.00
18987;BME280;9627;59.236;18.142;2022-07-23T00:28:19;100675.56;;;17.65;100.00
18987;BME280;9627;59.236;18.142;2022-07-23T00:30:46;100674.72;;;17.65;100.00
18987;BME280;9627;59.236;18.142;2022-07-23T00:33:13;100676.91;;;17.56;100.00
18987;BME280;9627;59.236;18.142;2022-07-23T00:35:40;100684.56;;;17.71;100.00
18987;BME280;9627;59.236;18.142;2022-07-23T00:38:07;100684.06;;;17.62;100.00
18987;BME280;9627;59.236;18.142;2022-07-23T00:40:34;100682.56;;;17.66;100.00
18987;BME280;9627;59.236;18.142;2022-07-23T00:43:03;100679.44;;;17.69;100.00
18987;BME280;9627;59.236;18.142;2022-07-23T00:45:30;100677.09;;;17.73;100.00
18987;BME280;9627;59.236;18.142;2022-07-23T00:47:57;100668.78;;;17.74;100.00
18987;BME280;9627;59.236;18.142;2022-07-23T00:50:24;100672.06;;;17.76;100.00
18987;BME280;9627;59.236;18.142;2022-07-23T00:52:51;100673.81;;;17.71;100.00
18987;BME280;9627;59.236;18.142;2022-07-23T00:55:18;100681.63;;;17.72;100.00
18987;BME280;9627;59.236;18.142;2022-07-23T00:57:45;100672.06;;;17.88;100.00
18987;BME280;9627;59.236;18.142;2022-07-23T01:00:14;100679.66;;;17.91;100.00
18987;BME280;9627;59.236;18.142;2022-07-23T01:02:41;100687.94;;;17.89;100.00
18987;BME280;9627;59.236;18.142;2022-07-23T01:05:08;100679.66;;;17.91;100.00
18987;BME280;9627;59.236;18.142;2022-07-23T01:07:36;100676.63;;;17.99;100.00
18987;BME280;9627;59.236;18.142;2022-07-23T01:10:03;100675.34;;;18.01;100.00
18987;BME280;9627;59.236;18.142;2022-07-23T01:12:50;100679.56;;;17.86;100.00
18987;BME280;9627;59.236;18.142;2022-07-23T01:15:18;100669.41;;;17.88;100.00
18987;BME280;9627;59.236;18.142;2022-07-23T01:17:44;100670.44;;;17.87;100.00
18987;BME280;9627;59.236;18.142;2022-07-23T01:20:11;100679.53;;;17.74;100.00
18987;BME280;9627;59.236;18.142;2022-07-23T01:22:39;100680.00;;;17.71;100.00
18987;BME280;9627;59.236;18.142;2022-07-23T01:25:06;100677.19;;;17.66;100.00
18987;BME280;9627;59.236;18.142;2022-07-23T01:27:33;100679.63;;;17.68;100.00
18987;BME280;9627;59.236;18.142;2022-07-23T01:29:59;100674.47;;;17.54;100.00
18987;BME280;9627;59.236;18.142;2022-07-23T01:32:26;100675.59;;;17.47;100.00
18987;BME280;9627;59.236;18.142;2022-07-23T01:34:53;100678.50;;;17.45;100.00
18987;BME280;9627;59.236;18.142;2022-07-23T01:37:19;100681.28;;;17.27;100.00
18987;BME280;9627;59.236;18.142;2022-07-23T01:39:47;100668.22;;;17.31;100.00
18987;BME280;9627;59.236;18.142;2022-07-23T01:42:14;100675.47;;;17.42;100.00
18987;BME280;9627;59.236;18.142;2022-07-23T01:44:41;100669.81;;;17.20;100.00
18987;BME280;9627;59.236;18.142;2022-07-23T01:47:07;100670.88;;;17.19;100.00
18987;BME280;9627;59.236;18.142;2022-07-23T01:49:34;100676.31;;;17.13;100.00
18987;BME280;9627;59.236;18.142;2022-07-23T01:52:01;100672.63;;;16.96;100.00
18987;BME280;9627;59.236;18.142;2022-07-23T01:54:28;100678.00;;;16.96;100.00
18987;BME280;9627;59.236;18.142;2022-07-23T01:56:57;100680.25;;;16.99;100.00
18987;BME280;9627;59.236;18.142;2022-07-23T01:59:24;100674.41;;;17.02;100.00
18987;BME280;9627;59.236;18.142;2022-07-23T02:01:51;100679.94;;;16.89;100.00
18987;BME280;9627;59.236;18.142;2022-07-23T02:04:18;100673.75;;;16.88;100.00
18987;BME280;9627;59.236;18.142;2022-07-23T02:06:45;100669.66;;;16.86;100.00
18987;BME280;9627;59.236;18.142;2022-07-23T02:09:12;100676.91;;;16.85;100.00
18987;BME280;9627;59.236;18.142;2022-07-23T02:11:38;100667.22;;;16.84;100.00
18987;BME280;9627;59.236;18.142;2022-07-23T02:14:06;100669.25;;;16.70;100.00
18987;BME280;9627;59.236;18.142;2022-07-23T02:16:33;100667.38;;;16.71;100.00
18987;BME280;9627;59.236;18.142;2022-07-23T02:19:00;100659.81;;;16.68;100.00
18987;BME280;9627;59.236;18.142;2022-07-23T02:21:27;100660.47;;;16.63;100.00
18987;BME280;9627;59.236;18.142;2022-07-23T02:23:53;100659.88;;;16.61;100.00
18987;BME280;9627;59.236;18.142;2022-07-23T02:26:20;100654.22;;;16.69;100.00
18987;BME280;9627;59.236;18.142;2022-07-23T02:28:47;100663.03;;;16.58;100.00
18987;BME280;9627;59.236;18.142;2022-07-23T02:31:15;100663.03;;;16.58;100.00
18987;BME280;9627;59.236;18.142;2022-07-23T02:33:44;100664.50;;;16.54;100.00
18987;BME280;9627;59.236;18.142;2022-07-23T02:36:10;100667.41;;;16.53;100.00
18987;BME280;9627;59.236;18.142;2022-07-23T02:38:36;100671.34;;;16.50;100.00
18987;BME280;9627;59.236;18.142;2022-07-23T02:41:03;100672.97;;;16.51;100.00
18987;BME280;9627;59.236;18.142;2022-07-23T02:43:30;100671.59;;;16.49;100.00
18987;BME280;9627;59.236;18.142;2022-07-23T02:45:56;100666.03;;;16.44;100.00
18987;BME280;9627;59.236;18.142;2022-07-23T02:48:24;100666.84;;;16.44;100.00
18987;BME280;9627;59.236;18.142;2022-07-23T02:50:51;100670.19;;;16.40;100.00
18987;BME280;9627;59.236;18.142;2022-07-23T02:53:21;100669.44;;;16.33;100.00
18987;BME280;9627;59.236;18.142;2022-07-23T02:55:47;100667.38;;;16.35;100.00
18987;BME280;9627;59.236;18.142;2022-07-23T02:58:14;100675.91;;;16.25;100.00
18987;BME280;9627;59.236;18.142;2022-07-23T03:00:41;100668.34;;;16.22;100.00
18987;BME280;9627;59.236;18.142;2022-07-23T03:03:07;100667.88;;;16.25;100.00
18987;BME280;9627;59.236;18.142;2022-07-23T03:05:35;100671.13;;;16.09;100.00
18987;BME280;9627;59.236;18.142;2022-07-23T03:08:02;100672.63;;;16.05;100.00
18987;BME280;9627;59.236;18.142;2022-07-23T03:10:29;100676.72;;;16.08;100.00
18987;BME280;9627;59.236;18.142;2022-07-23T03:12:55;100674.25;;;16.06;100.00
18987;BME280;9627;59.236;18.142;2022-07-23T03:15:21;100675.81;;;15.96;100.00
18987;BME280;9627;59.236;18.142;2022-07-23T03:17:48;100686.13;;;15.92;100.00
18987;BME280;9627;59.236;18.142;2022-07-23T03:20:14;100696.56;;;16.00;100.00
18987;BME280;9627;59.236;18.142;2022-07-23T03:22:42;100691.66;;;15.97;100.00
18987;BME280;9627;59.236;18.142;2022-07-23T03:25:09;100697.00;;;15.97;100.00
18987;BME280;9627;59.236;18.142;2022-07-23T03:27:36;100697.38;;;16.01;100.00
18987;BME280;9627;59.236;18.142;2022-07-23T03:30:02;100688.91;;;16.04;100.00
18987;BME280;9627;59.236;18.142;2022-07-23T03:32:29;100693.16;;;16.11;100.00
18987;BME280;9627;59.236;18.142;2022-07-23T03:34:56;100687.38;;;16.14;100.00
18987;BME280;9627;59.236;18.142;2022-07-23T03:37:23;100688.69;;;16.05;100.00
18987;BME280;9627;59.236;18.142;2022-07-23T03:39:52;100694.31;;;15.97;100.00
18987;BME280;9627;59.236;18.142;2022-07-23T03:42:18;100687.50;;;16.01;100.00
18987;BME280;9627;59.236;18.142;2022-07-23T03:44:45;100683.41;;;15.99;100.00
18987;BME280;9627;59.236;18.142;2022-07-23T03:47:11;100678.38;;;15.84;100.00
18987;BME280;9627;59.236;18.142;2022-07-23T03:49:37;100684.81;;;16.01;100.00
18987;BME280;9627;59.236;18.142;2022-07-23T03:52:04;100687.38;;;16.14;100.00
18987;BME280;9627;59.236;18.142;2022-07-23T03:54:31;100694.06;;;16.23;100.00
18987;BME280;9627;59.236;18.142;2022-07-23T03:57:00;100695.41;;;16.14;100.00
18987;BME280;9627;59.236;18.142;2022-07-23T03:59:26;100695.88;;;16.29;100.00
18987;BME280;9627;59.236;18.142;2022-07-23T04:01:53;100688.28;;;16.26;100.00
18987;BME280;9627;59.236;18.142;2022-07-23T04:04:19;100698.91;;;16.33;100.00
18987;BME280;9627;59.236;18.142;2022-07-23T04:06:46;100698.63;;;16.41;100.00
18987;BME280;9627;59.236;18.142;2022-07-23T04:09:13;100701.34;;;16.16;100.00
18987;BME280;9627;59.236;18.142;2022-07-23T04:11:40;100699.41;;;16.05;100.00
18987;BME280;9627;59.236;18.142;2022-07-23T04:14:08;100694.00;;;15.87;100.00
18987;BME280;9627;59.236;18.142;2022-07-23T04:16:34;100694.84;;;16.06;100.00
18987;BME280;9627;59.236;18.142;2022-07-23T04:19:01;100698.44;;;16.18;100.00
18987;BME280;9627;59.236;18.142;2022-07-23T04:21:29;100699.97;;;16.32;100.00
18987;BME280;9627;59.236;18.142;2022-07-23T04:23:55;100705.34;;;16.32;100.00
18987;BME280;9627;59.236;18.142;2022-07-23T04:26:22;100698.91;;;16.15;100.00
18987;BME280;9627;59.236;18.142;2022-07-23T04:28:48;100702.22;;;16.10;100.00
18987;BME280;9627;59.236;18.142;2022-07-23T04:31:16;100695.81;;;16.11;100.00
18987;BME280;9627;59.236;18.142;2022-07-23T04:33:43;100703.16;;;16.22;100.00
18987;BME280;9627;59.236;18.142;2022-07-23T04:36:09;100700.56;;;16.34;100.00
18987;BME280;9627;59.236;18.142;2022-07-23T04:38:36;100697.97;;;16.45;100.00
18987;BME280;9627;59.236;18.142;2022-07-23T04:41:03;100710.66;;;16.56;100.00
18987;BME280;9627;59.236;18.142;2022-07-23T04:43:29;100710.50;;;16.51;100.00
18987;BME280;9627;59.236;18.142;2022-07-23T04:45:56;100708.34;;;16.60;100.00
18987;BME280;9627;59.236;18.142;2022-07-23T04:48:24;100704.69;;;16.73;100.00
18987;BME280;9627;59.236;18.142;2022-07-23T04:50:51;100706.16;;;16.68;100.00
18987;BME280;9627;59.236;18.142;2022-07-23T04:53:18;100706.69;;;16.77;100.00
18987;BME280;9627;59.236;18.142;2022-07-23T04:55:45;100711.84;;;16.60;100.00
18987;BME280;9627;59.236;18.142;2022-07-23T04:58:11;100719.06;;;16.60;100.00
18987;BME280;9627;59.236;18.142;2022-07-23T05:00:38;100716.72;;;16.45;100.00
18987;BME280;9627;59.236;18.142;2022-07-23T05:03:04;100716.66;;;16.52;100.00
18987;BME280;9627;59.236;18.142;2022-07-23T05:05:32;100725.69;;;16.57;100.00
18987;BME280;9627;59.236;18.142;2022-07-23T05:07:59;100718.22;;;16.59;100.00
18987;BME280;9627;59.236;18.142;2022-07-23T05:10:25;100716.81;;;16.57;100.00
18987;BME280;9627;59.236;18.142;2022-07-23T05:12:52;100715.41;;;16.54;100.00
18987;BME280;9627;59.236;18.142;2022-07-23T05:15:19;100714.72;;;16.59;100.00
18987;BME280;9627;59.236;18.142;2022-07-23T05:17:45;100717.63;;;16.39;100.00
18987;BME280;9627;59.236;18.142;2022-07-23T05:20:12;100712.25;;;16.39;100.00
18987;BME280;9627;59.236;18.142;2022-07-23T05:22:41;100710.47;;;16.33;100.00
18987;BME280;9627;59.236;18.142;2022-07-23T05:25:07;100708.88;;;16.26;100.00
18987;BME280;9627;59.236;18.142;2022-07-23T05:27:34;100702.75;;;16.19;100.00
18987;BME280;9627;59.236;18.142;2022-07-23T05:30:01;100701.34;;;16.16;100.00
18987;BME280;9627;59.236;18.142;2022-07-23T05:32:28;100705.59;;;16.24;100.00
18987;BME280;9627;59.236;18.142;2022-07-23T05:34:54;100706.53;;;16.36;100.00
18987;BME280;9627;59.236;18.142;2022-07-23T05:37:21;100703.63;;;16.37;100.00
18987;BME280;9627;59.236;18.142;2022-07-23T05:39:49;100703.63;;;16.37;100.00
18987;BME280;9627;59.236;18.142;2022-07-23T05:42:15;100704.94;;;16.28;100.00
18987;BME280;9627;59.236;18.142;2022-07-23T05:44:43;100714.56;;;16.36;100.00
18987;BME280;9627;59.236;18.142;2022-07-23T05:47:09;100710.59;;;16.38;100.00
18987;BME280;9627;59.236;18.142;2022-07-23T05:49:36;100706.19;;;16.50;100.00
18987;BME280;9627;59.236;18.142;2022-07-23T05:52:04;100705.75;;;16.72;100.00
18987;BME280;9627;59.236;18.142;2022-07-23T05:54:30;100709.59;;;16.76;100.00
18987;BME280;9627;59.236;18.142;2022-07-23T05:56:59;100706.94;;;16.76;100.00
18987;BME280;9627;59.236;18.142;2022-07-23T05:59:26;100710.47;;;16.88;100.00
18987;BME280;9627;59.236;18.142;2022-07-23T06:01:52;100710.19;;;16.78;100.00
18987;BME280;9627;59.236;18.142;2022-07-23T06:04:19;100711.94;;;17.02;100.00
18987;BME280;9627;59.236;18.142;2022-07-23T06:06:45;100696.94;;;17.12;100.00
18987;BME280;9627;59.236;18.142;2022-07-23T06:09:12;100701.72;;;17.10;100.00
18987;BME280;9627;59.236;18.142;2022-07-23T06:11:39;100700.00;;;17.16;100.00
18987;BME280;9627;59.236;18.142;2022-07-23T06:14:07;100709.06;;;17.33;100.00
18987;BME280;9627;59.236;18.142;2022-07-23T06:16:34;100703.66;;;17.21;100.00
18987;BME280;9627;59.236;18.142;2022-07-23T06:19:00;100700.22;;;17.44;100.00
18987;BME280;9627;59.236;18.142;2022-07-23T06:21:27;100702.91;;;17.44;100.00
18987;BME280;9627;59.236;18.142;2022-07-23T06:23:53;100693.72;;;17.51;100.00
18987;BME280;9627;59.236;18.142;2022-07-23T06:26:20;100691.16;;;17.56;100.00
18987;BME280;9627;59.236;18.142;2022-07-23T06:28:46;100692.94;;;17.63;100.00
18987;BME280;9627;59.236;18.142;2022-07-23T06:31:14;100692.28;;;18.02;100.00
18987;BME280;9627;59.236;18.142;2022-07-23T06:33:41;100700.31;;;18.13;100.00
18987;BME280;9627;59.236;18.142;2022-07-23T06:36:08;100704.75;;;17.96;100.00
18987;BME280;9627;59.236;18.142;2022-07-23T06:38:34;100700.94;;;17.92;100.00
18987;BME280;9627;59.236;18.142;2022-07-23T06:41:01;100709.94;;;18.09;100.00
18987;BME280;9627;59.236;18.142;2022-07-23T06:43:29;100701.16;;;18.37;100.00
18987;BME280;9627;59.236;18.142;2022-07-23T06:45:58;100700.53;;;19.09;100.00
18987;BME280;9627;59.236;18.142;2022-07-23T06:48:27;100701.63;;;19.53;100.00
18987;BME280;9627;59.236;18.142;2022-07-23T06:50:54;100706.63;;;19.61;100.00
18987;BME280;9627;59.236;18.142;2022-07-23T06:53:20;100707.25;;;19.52;100.00
18987;BME280;9627;59.236;18.142;2022-07-23T06:55:47;100704.50;;;19.80;100.00
18987;BME280;9627;59.236;18.142;2022-07-23T06:58:13;100709.50;;;19.71;100.00
18987;BME280;9627;59.236;18.142;2022-07-23T07:00:40;100710.53;;;19.25;100.00
18987;BME280;9627;59.236;18.142;2022-07-23T07:03:07;100708.91;;;18.85;100.00
18987;BME280;9627;59.236;18.142;2022-07-23T07:05:35;100705.56;;;18.78;100.00
18987;BME280;9627;59.236;18.142;2022-07-23T07:08:02;100710.81;;;18.61;100.00
18987;BME280;9627;59.236;18.142;2022-07-23T07:10:29;100712.69;;;18.84;100.00
18987;BME280;9627;59.236;18.142;2022-07-23T07:12:55;100713.75;;;18.71;100.00
18987;BME280;9627;59.236;18.142;2022-07-23T07:15:22;100713.28;;;18.74;100.00
18987;BME280;9627;59.236;18.142;2022-07-23T07:17:49;100717.44;;;18.93;100.00
18987;BME280;9627;59.236;18.142;2022-07-23T07:20:15;100720.84;;;18.89;100.00
18987;BME280;9627;59.236;18.142;2022-07-23T07:22:43;100718.47;;;18.92;100.00
18987;BME280;9627;59.236;18.142;2022-07-23T07:25:10;100709.84;;;19.18;100.00
18987;BME280;9627;59.236;18.142;2022-07-23T07:27:37;100711.63;;;19.41;100.00
18987;BME280;9627;59.236;18.142;2022-07-23T07:30:04;100727.34;;;19.04;100.00
18987;BME280;9627;59.236;18.142;2022-07-23T07:32:31;100726.72;;;18.74;100.00
18987;BME280;9627;59.236;18.142;2022-07-23T07:34:58;100732.31;;;18.73;100.00
18987;BME280;9627;59.236;18.142;2022-07-23T07:37:25;100729.66;;;18.49;100.00
18987;BME280;9627;59.236;18.142;2022-07-23T07:39:53;100726.75;;;19.02;100.00
18987;BME280;9627;59.236;18.142;2022-07-23T07:42:20;100727.84;;;19.29;100.00
18987;BME280;9627;59.236;18.142;2022-07-23T07:44:46;100737.19;;;19.38;100.00
18987;BME280;9627;59.236;18.142;2022-07-23T07:47:13;100740.66;;;19.67;100.00
18987;BME280;9627;59.236;18.142;2022-07-23T07:49:40;100734.72;;;19.37;100.00
18987;BME280;9627;59.236;18.142;2022-07-23T07:52:07;100735.84;;;19.41;100.00
18987;BME280;9627;59.236;18.142;2022-07-23T07:54:33;100737.38;;;19.65;100.00
18987;BME280;9627;59.236;18.142;2022-07-23T07:57:01;100737.00;;;19.73;100.00
18987;BME280;9627;59.236;18.142;2022-07-23T07:59:28;100729.16;;;19.88;100.00
18987;BME280;9627;59.236;18.142;2022-07-23T08:01:55;100727.38;;;19.94;100.00
18987;BME280;9627;59.236;18.142;2022-07-23T08:04:22;100731.03;;;19.71;100.00
18987;BME280;9627;59.236;18.142;2022-07-23T08:06:48;100736.41;;;19.71;100.00
18987;BME280;9627;59.236;18.142;2022-07-23T08:09:15;100738.72;;;19.96;100.00
18987;BME280;9627;59.236;18.142;2022-07-23T08:11:42;100729.78;;;20.12;100.00
18987;BME280;9627;59.236;18.142;2022-07-23T08:14:10;100737.97;;;20.17;100.00
18987;BME280;9627;59.236;18.142;2022-07-23T08:16:37;100744.16;;;20.17;100.00
18987;BME280;9627;59.236;18.142;2022-07-23T08:19:04;100740.72;;;19.89;100.00
18987;BME280;9627;59.236;18.142;2022-07-23T08:21:31;100749.75;;;19.94;100.00
18987;BME280;9627;59.236;18.142;2022-07-23T08:23:57;100740.00;;;19.77;100.00
18987;BME280;9627;59.236;18.142;2022-07-23T08:26:24;100753.16;;;19.45;100.00
18987;BME280;9627;59.236;18.142;2022-07-23T08:28:50;100750.13;;;19.41;100.00
18987;BME280;9627;59.236;18.142;2022-07-23T08:31:19;100755.22;;;19.26;100.00
18987;BME280;9627;59.236;18.142;2022-07-23T08:33:45;100757.56;;;19.34;100.00
18987;BME280;9627;59.236;18.142;2022-07-23T08:36:12;100757.06;;;19.26;100.00
18987;BME280;9627;59.236;18.142;2022-07-23T08:38:38;100760.88;;;19.13;100.00
18987;BME280;9627;59.236;18.142;2022-07-23T08:41:05;100761.72;;;19.02;100.00
18987;BME280;9627;59.236;18.142;2022-07-23T08:43:33;100765.84;;;18.93;100.00
18987;BME280;9627;59.236;18.142;2022-07-23T08:46:01;100771.13;;;18.77;100.00
18987;BME280;9627;59.236;18.142;2022-07-23T08:48:30;100774.41;;;18.79;100.00
18987;BME280;9627;59.236;18.142;2022-07-23T08:50:58;100780.53;;;18.51;100.00
18987;BME280;9627;59.236;18.142;2022-07-23T08:53:26;100788.44;;;18.69;100.00
18987;BME280;9627;59.236;18.142;2022-07-23T08:55:53;100788.00;;;18.49;100.00
18987;BME280;9627;59.236;18.142;2022-07-23T08:58:20;100785.06;;;18.74;100.00
18987;BME280;9627;59.236;18.142;2022-07-23T09:00:47;100781.22;;;18.58;100.00
18987;BME280;9627;59.236;18.142;2022-07-23T09:03:15;100784.81;;;18.52;100.00
18987;BME280;9627;59.236;18.142;2022-07-23T09:05:44;100790.09;;;18.59;100.00
18987;BME280;9627;59.236;18.142;2022-07-23T09:08:12;100784.81;;;18.75;100.00
18987;BME280;9627;59.236;18.142;2022-07-23T09:10:43;100786.00;;;19.19;100.00
18987;BME280;9627;59.236;18.142;2022-07-23T09:13:22;100787.53;;;19.55;100.00
18987;BME280;9627;59.236;18.142;2022-07-23T09:15:49;100791.50;;;19.64;100.00
18987;BME280;9627;59.236;18.142;2022-07-23T09:18:16;100794.97;;;19.64;100.00
18987;BME280;9627;59.236;18.142;2022-07-23T09:20:44;100794.13;;;19.47;100.00
18987;BME280;9627;59.236;18.142;2022-07-23T09:23:11;100795.19;;;19.46;100.00
18987;BME280;9627;59.236;18.142;2022-07-23T09:25:38;100786.91;;;19.24;100.00
18987;BME280;9627;59.236;18.142;2022-07-23T09:28:04;100782.63;;;19.52;100.00
18987;BME280;9627;59.236;18.142;2022-07-23T09:30:32;100786.00;;;19.19;100.00
18987;BME280;9627;59.236;18.142;2022-07-23T09:33:04;100799.50;;;19.07;100.00
18987;BME280;9627;59.236;18.142;2022-07-23T09:35:46;100791.66;;;19.06;100.00
18987;BME280;9627;59.236;18.142;2022-07-23T09:38:14;100795.19;;;18.95;100.00
18987;BME280;9627;59.236;18.142;2022-07-23T09:40:41;100791.69;;;18.94;100.00
18987;BME280;9627;59.236;18.142;2022-07-23T09:43:08;100796.97;;;18.78;100.00
18987;BME280;9627;59.236;18.142;2022-07-23T09:45:35;100799.53;;;18.73;100.00
18987;BME280;9627;59.236;18.142;2022-07-23T09:48:11;100795.19;;;18.95;100.00
18987;BME280;9627;59.236;18.142;2022-07-23T09:50:38;100799.22;;;19.20;100.00
18987;BME280;9627;59.236;18.142;2022-07-23T09:53:06;100804.41;;;19.10;100.00
18987;BME280;9627;59.236;18.142;2022-07-23T09:55:33;100799.41;;;19.42;100.00
18987;BME280;9627;59.236;18.142;2022-07-23T09:58:02;100798.63;;;19.58;100.00
18987;BME280;9627;59.236;18.142;2022-07-23T10:00:29;100794.00;;;19.70;100.00
18987;BME280;9627;59.236;18.142;2022-07-23T10:02:57;100795.81;;;19.81;100.00
18987;BME280;9627;59.236;18.142;2022-07-23T10:05:24;100797.72;;;19.53;100.00
18987;BME280;9627;59.236;18.142;2022-07-23T10:07:51;100801.78;;;19.38;100.00
18987;BME280;9627;59.236;18.142;2022-07-23T10:10:20;100803.50;;;19.45;100.00
18987;BME280;9627;59.236;18.142;2022-07-23T10:12:47;100804.75;;;19.54;100.00
18987;BME280;9627;59.236;18.142;2022-07-23T10:15:31;100803.28;;;19.46;100.00
18987;BME280;9627;59.236;18.142;2022-07-23T10:17:58;100805.88;;;19.86;100.00
18987;BME280;9627;59.236;18.142;2022-07-23T10:20:24;100803.06;;;19.92;100.00
18987;BME280;9627;59.236;18.142;2022-07-23T10:23:00;100797.34;;;20.39;100.00
18987;BME280;9627;59.236;18.142;2022-07-23T10:25:32;100801.06;;;20.71;100.00
18987;BME280;9627;59.236;18.142;2022-07-23T10:28:12;100794.78;;;21.03;100.00
18987;BME280;9627;59.236;18.142;2022-07-23T10:30:48;100798.94;;;21.11;100.00
18987;BME280;9627;59.236;18.142;2022-07-23T10:33:24;100800.50;;;21.29;100.00
18987;BME280;9627;59.236;18.142;2022-07-23T10:35:54;100800.09;;;20.98;100.00
18987;BME280;9627;59.236;18.142;2022-07-23T10:38:24;100799.31;;;20.43;100.00
18987;BME280;9627;59.236;18.142;2022-07-23T10:40:57;100798.44;;;20.38;100.00
18987;BME280;9627;59.236;18.142;2022-07-23T10:43:24;100810.31;;;19.92;100.00
18987;BME280;9627;59.236;18.142;2022-07-23T10:45:51;100816.78;;;19.11;100.00
18987;BME280;9627;59.236;18.142;2022-07-23T10:48:19;100809.19;;;19.20;100.00
18987;BME280;9627;59.236;18.142;2022-07-23T10:53:52;100812.97;;;18.73;100.00
18987;BME280;9627;59.236;18.142;2022-07-23T10:59:04;100820.25;;;18.61;100.00
18987;BME280;9627;59.236;18.142;2022-07-23T11:01:31;100815.91;;;18.60;100.00
18987;BME280;9627;59.236;18.142;2022-07-23T11:03:58;100810.53;;;18.60;100.00
18987;BME280;9627;59.236;18.142;2022-07-23T11:06:35;100819.09;;;18.68;100.00
18987;BME280;9627;59.236;18.142;2022-07-23T11:09:25;100825.91;;;18.29;100.00
18987;BME280;9627;59.236;18.142;2022-07-23T11:14:59;100830.94;;;18.14;100.00
18987;BME280;9627;59.236;18.142;2022-07-23T11:17:25;100825.22;;;18.22;100.00
18987;BME280;9627;59.236;18.142;2022-07-23T11:22:39;100829.84;;;18.15;100.00
18987;BME280;9627;59.236;18.142;2022-07-23T11:25:05;100832.69;;;17.79;100.00
18987;BME280;9627;59.236;18.142;2022-07-23T11:27:36;100832.19;;;17.71;100.00
18987;BME280;9627;59.236;18.142;2022-07-23T11:30:05;100834.03;;;17.40;100.00
18987;BME280;9627;59.236;18.142;2022-07-23T11:32:34;100832.75;;;17.61;100.00
18987;BME280;9627;59.236;18.142;2022-07-23T11:35:03;100833.88;;;17.53;100.00
18987;BME280;9627;59.236;18.142;2022-07-23T11:37:44;100825.88;;;17.47;100.00
18987;BME280;9627;59.236;18.142;2022-07-23T11:40:12;100825.41;;;17.68;100.00
18987;BME280;9627;59.236;18.142;2022-07-23T11:42:39;100824.47;;;17.92;100.00
18987;BME280;9627;59.236;18.142;2022-07-23T11:45:08;100819.66;;;17.94;100.00
18987;BME280;9627;59.236;18.142;2022-07-23T11:47:35;100822.38;;;18.06;100.00
18987;BME280;9627;59.236;18.142;2022-07-23T11:50:03;100825.09;;;17.76;100.00
18987;BME280;9627;59.236;18.142;2022-07-23T11:52:31;100824.53;;;17.86;100.00
18987;BME280;9627;59.236;18.142;2022-07-23T11:54:59;100830.69;;;17.75;100.00
18987;BME280;9627;59.236;18.142;2022-07-23T11:57:27;100835.41;;;17.91;100.00
18987;BME280;9627;59.236;18.142;2022-07-23T11:59:54;100834.97;;;17.64;100.00
18987;BME280;9627;59.236;18.142;2022-07-23T12:02:23;100835.00;;;17.28;100.00
18987;BME280;9627;59.236;18.142;2022-07-23T12:04:51;100830.28;;;17.41;100.00
18987;BME280;9627;59.236;18.142;2022-07-23T12:07:28;100833.78;;;17.42;100.00
18987;BME280;9627;59.236;18.142;2022-07-23T12:09:56;100841.22;;;17.58;100.00
18987;BME280;9627;59.236;18.142;2022-07-23T12:12:23;100837.22;;;17.49;100.00
18987;BME280;9627;59.236;18.142;2022-07-23T12:14:51;100838.34;;;17.59;100.00
18987;BME280;9627;59.236;18.142;2022-07-23T12:17:18;100840.97;;;17.48;100.00
18987;BME280;9627;59.236;18.142;2022-07-23T12:19:47;100845.13;;;17.44;100.00
18987;BME280;9627;59.236;18.142;2022-07-23T12:22:14;100837.78;;;17.21;100.00
18987;BME280;9627;59.236;18.142;2022-07-23T12:24:57;100840.28;;;17.34;100.00
18987;BME280;9627;59.236;18.142;2022-07-23T12:27:24;100844.16;;;17.20;100.00
18987;BME280;9627;59.236;18.142;2022-07-23T12:29:51;100849.63;;;17.14;100.00
18987;BME280;9627;59.236;18.142;2022-07-23T12:32:18;100845.28;;;17.13;100.00
18987;BME280;9627;59.236;18.142;2022-07-23T12:34:49;100848.25;;;17.05;100.00
18987;BME280;9627;59.236;18.142;2022-07-23T12:37:28;100854.59;;;16.92;100.00
18987;BME280;9627;59.236;18.142;2022-07-23T12:39:55;100856.81;;;16.95;100.00
18987;BME280;9627;59.236;18.142;2022-07-23T12:42:22;100849.22;;;16.92;100.00
18987;BME280;9627;59.236;18.142;2022-07-23T12:45:03;100857.84;;;16.76;100.00
18987;BME280;9627;59.236;18.142;2022-07-23T12:47:30;100862.41;;;16.76;100.00
18987;BME280;9627;59.236;18.142;2022-07-23T12:49:58;100855.56;;;16.80;100.00
18987;BME280;9627;59.236;18.142;2022-07-23T12:52:25;100863.47;;;16.93;100.00
18987;BME280;9627;59.236;18.142;2022-07-23T12:54:51;100866.88;;;16.82;100.00